Antonio B. Won Pat International Airport
PGUM : now visible

Aeroporto :











RITROVATECI SU...

 
LOGIN :

Iscrizione | Disclaimer

   EN    FR    IT 

 









Sommario :    VFR   VFR Marginale   IFR   IFR Intensivo   IFR Molto Intensivo
Visibilità : 
Base nubi : 
>= 8 km
>= 3000ft
5 / 8 km
1000 / 3000 ft
1500m / 5 km
500 / 1000 ft
800 / 1500m
200 / 500 ft
< 800m
< 200 ft
Simboli :   Temporali  Nebbia  Neve Forte  Precipitazioni Forti  Vento > 20 kt






- Altitudine del aeroporto : 298 ft
- Codice IATA : GUM


PGUM - Antonio B. Won Pat International

ULTIMO METAR :
  • 120554Z 11009KT 10SM FEW017 FEW023 29/24 A2981 RMK AO2 SLP087 60000 T02890244 10300 20278 55003

METARs OBSOLETI :
  • 120454Z 12009KT 10SM FEW017 FEW038 29/24 A2980 RMK AO2 SLP084 T02940244
  • 120409Z 12007KT 10SM SCT021 SCT027 30/24 A2981 RMK AO2 T03000244
  • 120354Z 12008KT 10SM SCT020 BKN028 30/24 A2982 RMK AO2 SLP090 T03000244

TAF PGUM
Valido dal 12 a 06 ore il 13 a 12 ore UTC


120533Z 1206/1312 10011KT P6SM VCSH FEW015 SCT050



MetMap, La meteo Aeronautica in un colpo d'occhio ! - Copyright ORBIFLY Dicembre 2007 - Disclaimer

ORBIFLY MET'MAP TEAM :

Programmazione e sviluppo : Alexandra Zaïnal
Concezione e sviluppo : Baudouin d'Aumeries
Co-Programmazione e sviluppo : Marc-Olivier Méhu
Supporto tecnico e logistico : Manuel Goepfert
Aiuto per la traduzione : Arnaldo La Scala

Contatto : metmap@orbifly.com




FONTI E CREDITI :

   NOAA       Earth
Advisory